sensor_id;sensor_type;location;lat;lon;timestamp;P1;durP1;ratioP1;P2;durP2;ratioP2
46561;SDS011;32289;42.688;23.330;2023-05-19T00:01:06;7.20;;;3.80;;
46561;SDS011;32289;42.688;23.330;2023-05-19T00:04:48;6.32;;;3.65;;
46561;SDS011;32289;42.688;23.330;2023-05-19T00:08:30;5.05;;;3.35;;
46561;SDS011;32289;42.688;23.330;2023-05-19T00:12:11;6.68;;;4.00;;
46561;SDS011;32289;42.688;23.330;2023-05-19T00:15:53;6.43;;;3.30;;
46561;SDS011;32289;42.688;23.330;2023-05-19T00:19:33;7.28;;;4.15;;
46561;SDS011;32289;42.688;23.330;2023-05-19T00:23:14;6.20;;;3.38;;
46561;SDS011;32289;42.688;23.330;2023-05-19T00:26:55;5.15;;;3.60;;
46561;SDS011;32289;42.688;23.330;2023-05-19T00:30:35;10.30;;;3.80;;
46561;SDS011;32289;42.688;23.330;2023-05-19T00:34:16;5.32;;;3.30;;
46561;SDS011;32289;42.688;23.330;2023-05-19T00:37:57;6.43;;;3.63;;
46561;SDS011;32289;42.688;23.330;2023-05-19T00:41:37;9.40;;;4.40;;
46561;SDS011;32289;42.688;23.330;2023-05-19T00:45:18;6.65;;;3.72;;
46561;SDS011;32289;42.688;23.330;2023-05-19T00:48:58;6.68;;;4.00;;
46561;SDS011;32289;42.688;23.330;2023-05-19T00:52:39;7.32;;;4.15;;
46561;SDS011;32289;42.688;23.330;2023-05-19T00:56:20;9.05;;;5.07;;
46561;SDS011;32289;42.688;23.330;2023-05-19T01:00:01;9.13;;;4.68;;
46561;SDS011;32289;42.688;23.330;2023-05-19T01:03:43;11.20;;;4.60;;
46561;SDS011;32289;42.688;23.330;2023-05-19T01:07:26;7.78;;;4.78;;
46561;SDS011;32289;42.688;23.330;2023-05-19T01:11:07;6.85;;;4.80;;
46561;SDS011;32289;42.688;23.330;2023-05-19T01:14:48;7.68;;;4.30;;
46561;SDS011;32289;42.688;23.330;2023-05-19T01:19:21;8.90;;;4.63;;
46561;SDS011;32289;42.688;23.330;2023-05-19T01:30:41;11.38;;;6.03;;
46561;SDS011;32289;42.688;23.330;2023-05-19T01:34:23;15.13;;;6.68;;
46561;SDS011;32289;42.688;23.330;2023-05-19T01:38:09;10.60;;;6.30;;
46561;SDS011;32289;42.688;23.330;2023-05-19T01:41:52;13.85;;;6.40;;
46561;SDS011;32289;42.688;23.330;2023-05-19T01:45:33;11.57;;;5.53;;
46561;SDS011;32289;42.688;23.330;2023-05-19T01:49:15;10.85;;;6.13;;
46561;SDS011;32289;42.688;23.330;2023-05-19T01:52:56;9.07;;;5.05;;
46561;SDS011;32289;42.688;23.330;2023-05-19T01:56:43;11.93;;;6.00;;
46561;SDS011;32289;42.688;23.330;2023-05-19T02:00:44;14.95;;;5.70;;
46561;SDS011;32289;42.688;23.330;2023-05-19T02:04:42;11.70;;;6.15;;
46561;SDS011;32289;42.688;23.330;2023-05-19T02:08:33;10.82;;;6.78;;
46561;SDS011;32289;42.688;23.330;2023-05-19T02:16:17;9.68;;;6.15;;
46561;SDS011;32289;42.688;23.330;2023-05-19T02:19:59;11.55;;;6.57;;
46561;SDS011;32289;42.688;23.330;2023-05-19T02:23:40;12.70;;;6.82;;
46561;SDS011;32289;42.688;23.330;2023-05-19T02:27:21;11.93;;;6.20;;
46561;SDS011;32289;42.688;23.330;2023-05-19T02:31:02;12.15;;;5.97;;
46561;SDS011;32289;42.688;23.330;2023-05-19T02:34:45;9.90;;;5.85;;
46561;SDS011;32289;42.688;23.330;2023-05-19T02:38:25;15.65;;;6.57;;
46561;SDS011;32289;42.688;23.330;2023-05-19T02:42:06;10.68;;;6.10;;
46561;SDS011;32289;42.688;23.330;2023-05-19T02:45:47;10.93;;;6.35;;
46561;SDS011;32289;42.688;23.330;2023-05-19T02:49:27;14.55;;;7.30;;
46561;SDS011;32289;42.688;23.330;2023-05-19T02:53:14;11.82;;;6.22;;
46561;SDS011;32289;42.688;23.330;2023-05-19T02:56:55;11.85;;;6.47;;
46561;SDS011;32289;42.688;23.330;2023-05-19T03:00:36;10.90;;;6.40;;
46561;SDS011;32289;42.688;23.330;2023-05-19T03:04:16;11.70;;;6.78;;
46561;SDS011;32289;42.688;23.330;2023-05-19T03:07:59;20.08;;;6.78;;
46561;SDS011;32289;42.688;23.330;2023-05-19T03:11:39;13.45;;;6.43;;
46561;SDS011;32289;42.688;23.330;2023-05-19T03:15:20;12.43;;;5.88;;
46561;SDS011;32289;42.688;23.330;2023-05-19T03:19:02;13.13;;;6.97;;
46561;SDS011;32289;42.688;23.330;2023-05-19T03:22:42;13.95;;;6.47;;
46561;SDS011;32289;42.688;23.330;2023-05-19T03:26:23;11.50;;;6.30;;
46561;SDS011;32289;42.688;23.330;2023-05-19T03:30:04;12.73;;;6.80;;
46561;SDS011;32289;42.688;23.330;2023-05-19T03:33:45;14.63;;;6.70;;
46561;SDS011;32289;42.688;23.330;2023-05-19T03:37:25;14.65;;;7.07;;
46561;SDS011;32289;42.688;23.330;2023-05-19T03:41:06;12.63;;;6.18;;
46561;SDS011;32289;42.688;23.330;2023-05-19T03:44:47;14.70;;;7.40;;
46561;SDS011;32289;42.688;23.330;2023-05-19T03:48:27;13.65;;;7.60;;
46561;SDS011;32289;42.688;23.330;2023-05-19T03:52:08;14.95;;;7.35;;
46561;SDS011;32289;42.688;23.330;2023-05-19T03:55:49;14.55;;;7.05;;
46561;SDS011;32289;42.688;23.330;2023-05-19T03:59:30;13.05;;;6.85;;
46561;SDS011;32289;42.688;23.330;2023-05-19T04:03:11;16.95;;;8.25;;
46561;SDS011;32289;42.688;23.330;2023-05-19T04:06:51;12.82;;;7.07;;
46561;SDS011;32289;42.688;23.330;2023-05-19T04:10:32;10.55;;;5.85;;
46561;SDS011;32289;42.688;23.330;2023-05-19T04:14:12;9.15;;;5.40;;
46561;SDS011;32289;42.688;23.330;2023-05-19T04:17:54;11.48;;;6.38;;
46561;SDS011;32289;42.688;23.330;2023-05-19T04:21:35;12.52;;;6.07;;
46561;SDS011;32289;42.688;23.330;2023-05-19T04:25:15;11.90;;;6.20;;
46561;SDS011;32289;42.688;23.330;2023-05-19T04:28:56;13.23;;;6.25;;
46561;SDS011;32289;42.688;23.330;2023-05-19T04:32:37;11.65;;;6.70;;
46561;SDS011;32289;42.688;23.330;2023-05-19T04:36:18;10.07;;;5.65;;
46561;SDS011;32289;42.688;23.330;2023-05-19T04:40:00;10.90;;;6.07;;
46561;SDS011;32289;42.688;23.330;2023-05-19T04:43:41;10.35;;;5.78;;
46561;SDS011;32289;42.688;23.330;2023-05-19T04:47:23;10.82;;;5.88;;
46561;SDS011;32289;42.688;23.330;2023-05-19T04:51:06;10.77;;;7.15;;
46561;SDS011;32289;42.688;23.330;2023-05-19T04:54:47;9.63;;;5.80;;
46561;SDS011;32289;42.688;23.330;2023-05-19T04:58:28;9.88;;;6.30;;
46561;SDS011;32289;42.688;23.330;2023-05-19T05:02:09;8.27;;;5.40;;
46561;SDS011;32289;42.688;23.330;2023-05-19T05:05:49;12.10;;;5.65;;
46561;SDS011;32289;42.688;23.330;2023-05-19T05:09:31;7.95;;;4.82;;
46561;SDS011;32289;42.688;23.330;2023-05-19T05:13:11;9.73;;;5.10;;
46561;SDS011;32289;42.688;23.330;2023-05-19T05:16:52;14.57;;;7.10;;
46561;SDS011;32289;42.688;23.330;2023-05-19T05:20:33;14.27;;;7.95;;
46561;SDS011;32289;42.688;23.330;2023-05-19T05:24:14;8.52;;;5.28;;
46561;SDS011;32289;42.688;23.330;2023-05-19T05:27:55;14.82;;;6.40;;
46561;SDS011;32289;42.688;23.330;2023-05-19T05:31:37;10.45;;;6.05;;
46561;SDS011;32289;42.688;23.330;2023-05-19T05:35:18;12.50;;;6.30;;
46561;SDS011;32289;42.688;23.330;2023-05-19T05:39:02;11.02;;;6.63;;
46561;SDS011;32289;42.688;23.330;2023-05-19T05:42:44;11.07;;;6.97;;
46561;SDS011;32289;42.688;23.330;2023-05-19T05:46:25;13.60;;;6.13;;
46561;SDS011;32289;42.688;23.330;2023-05-19T05:50:07;7.13;;;4.60;;
46561;SDS011;32289;42.688;23.330;2023-05-19T05:53:50;11.50;;;6.35;;
46561;SDS011;32289;42.688;23.330;2023-05-19T05:57:32;13.90;;;7.88;;
46561;SDS011;32289;42.688;23.330;2023-05-19T06:01:15;12.55;;;6.00;;
46561;SDS011;32289;42.688;23.330;2023-05-19T06:04:56;15.20;;;6.45;;
46561;SDS011;32289;42.688;23.330;2023-05-19T06:08:37;12.25;;;6.10;;
46561;SDS011;32289;42.688;23.330;2023-05-19T06:12:18;11.18;;;5.25;;
46561;SDS011;32289;42.688;23.330;2023-05-19T06:15:58;8.00;;;5.63;;
46561;SDS011;32289;42.688;23.330;2023-05-19T06:19:39;11.48;;;5.95;;
46561;SDS011;32289;42.688;23.330;2023-05-19T06:23:20;12.93;;;5.88;;
46561;SDS011;32289;42.688;23.330;2023-05-19T06:27:01;8.98;;;4.68;;
46561;SDS011;32289;42.688;23.330;2023-05-19T06:30:41;14.23;;;4.80;;
46561;SDS011;32289;42.688;23.330;2023-05-19T06:34:22;6.35;;;4.03;;
46561;SDS011;32289;42.688;23.330;2023-05-19T06:38:02;9.27;;;4.47;;
46561;SDS011;32289;42.688;23.330;2023-05-19T06:41:43;6.53;;;4.50;;
46561;SDS011;32289;42.688;23.330;2023-05-19T06:45:24;9.50;;;5.15;;
46561;SDS011;32289;42.688;23.330;2023-05-19T06:49:04;7.13;;;4.75;;
46561;SDS011;32289;42.688;23.330;2023-05-19T06:52:45;7.97;;;4.25;;
46561;SDS011;32289;42.688;23.330;2023-05-19T06:56:26;6.25;;;3.83;;
46561;SDS011;32289;42.688;23.330;2023-05-19T07:00:06;9.15;;;4.22;;
46561;SDS011;32289;42.688;23.330;2023-05-19T07:03:51;11.20;;;3.47;;
46561;SDS011;32289;42.688;23.330;2023-05-19T07:07:31;5.78;;;3.47;;
46561;SDS011;32289;42.688;23.330;2023-05-19T07:11:12;8.07;;;4.10;;
46561;SDS011;32289;42.688;23.330;2023-05-19T07:14:53;4.70;;;3.78;;
46561;SDS011;32289;42.688;23.330;2023-05-19T07:18:33;9.93;;;4.03;;
46561;SDS011;32289;42.688;23.330;2023-05-19T07:22:14;5.53;;;3.88;;
46561;SDS011;32289;42.688;23.330;2023-05-19T07:25:55;13.23;;;6.65;;
46561;SDS011;32289;42.688;23.330;2023-05-19T07:29:36;5.50;;;4.20;;
46561;SDS011;32289;42.688;23.330;2023-05-19T07:33:16;7.38;;;4.65;;
46561;SDS011;32289;42.688;23.330;2023-05-19T07:36:57;4.88;;;3.60;;
46561;SDS011;32289;42.688;23.330;2023-05-19T07:40:38;10.07;;;5.25;;
46561;SDS011;32289;42.688;23.330;2023-05-19T07:44:18;10.35;;;5.05;;
46561;SDS011;32289;42.688;23.330;2023-05-19T07:47:59;4.80;;;3.85;;
46561;SDS011;32289;42.688;23.330;2023-05-19T07:51:40;5.70;;;3.88;;
46561;SDS011;32289;42.688;23.330;2023-05-19T07:55:21;7.75;;;3.95;;
46561;SDS011;32289;42.688;23.330;2023-05-19T07:59:05;8.95;;;4.68;;
46561;SDS011;32289;42.688;23.330;2023-05-19T08:02:46;6.22;;;4.40;;
46561;SDS011;32289;42.688;23.330;2023-05-19T08:06:27;5.85;;;3.97;;
46561;SDS011;32289;42.688;23.330;2023-05-19T08:10:09;8.25;;;5.32;;
46561;SDS011;32289;42.688;23.330;2023-05-19T08:13:49;6.55;;;4.55;;
46561;SDS011;32289;42.688;23.330;2023-05-19T08:17:30;9.57;;;6.57;;
46561;SDS011;32289;42.688;23.330;2023-05-19T08:21:11;6.25;;;4.47;;
46561;SDS011;32289;42.688;23.330;2023-05-19T08:24:51;6.72;;;4.60;;
46561;SDS011;32289;42.688;23.330;2023-05-19T08:28:32;6.30;;;4.93;;
46561;SDS011;32289;42.688;23.330;2023-05-19T08:32:13;6.43;;;4.60;;
46561;SDS011;32289;42.688;23.330;2023-05-19T08:35:54;13.20;;;5.28;;
46561;SDS011;32289;42.688;23.330;2023-05-19T08:39:37;6.97;;;5.00;;
46561;SDS011;32289;42.688;23.330;2023-05-19T08:43:17;7.32;;;5.47;;
46561;SDS011;32289;42.688;23.330;2023-05-19T08:46:59;15.85;;;11.07;;
46561;SDS011;32289;42.688;23.330;2023-05-19T08:55:08;8.18;;;5.43;;
46561;SDS011;32289;42.688;23.330;2023-05-19T08:58:52;7.22;;;5.40;;
46561;SDS011;32289;42.688;23.330;2023-05-19T09:02:35;7.75;;;5.15;;
46561;SDS011;32289;42.688;23.330;2023-05-19T09:06:17;10.13;;;6.45;;
46561;SDS011;32289;42.688;23.330;2023-05-19T09:09:57;7.45;;;4.85;;
46561;SDS011;32289;42.688;23.330;2023-05-19T09:13:39;7.72;;;5.35;;
46561;SDS011;32289;42.688;23.330;2023-05-19T09:17:21;7.25;;;5.35;;
46561;SDS011;32289;42.688;23.330;2023-05-19T09:21:02;7.32;;;5.38;;
46561;SDS011;32289;42.688;23.330;2023-05-19T09:24:45;9.30;;;6.15;;
46561;SDS011;32289;42.688;23.330;2023-05-19T09:28:28;12.93;;;6.22;;
46561;SDS011;32289;42.688;23.330;2023-05-19T09:32:12;26.40;;;7.57;;
46561;SDS011;32289;42.688;23.330;2023-05-19T09:36:06;13.70;;;6.88;;
46561;SDS011;32289;42.688;23.330;2023-05-19T09:39:47;14.45;;;6.53;;
46561;SDS011;32289;42.688;23.330;2023-05-19T09:43:31;6.95;;;6.00;;
46561;SDS011;32289;42.688;23.330;2023-05-19T09:47:12;7.50;;;6.00;;
46561;SDS011;32289;42.688;23.330;2023-05-19T09:50:55;8.10;;;5.22;;
46561;SDS011;32289;42.688;23.330;2023-05-19T09:54:36;8.05;;;5.78;;
46561;SDS011;32289;42.688;23.330;2023-05-19T09:58:19;9.23;;;5.78;;
46561;SDS011;32289;42.688;23.330;2023-05-19T10:02:00;6.80;;;5.32;;
46561;SDS011;32289;42.688;23.330;2023-05-19T10:05:41;8.38;;;6.63;;
46561;SDS011;32289;42.688;23.330;2023-05-19T10:09:23;9.43;;;5.70;;
46561;SDS011;32289;42.688;23.330;2023-05-19T10:13:05;10.13;;;6.45;;
46561;SDS011;32289;42.688;23.330;2023-05-19T10:16:47;9.48;;;6.82;;
46561;SDS011;32289;42.688;23.330;2023-05-19T10:20:30;7.95;;;5.50;;
46561;SDS011;32289;42.688;23.330;2023-05-19T10:24:14;11.52;;;6.78;;
46561;SDS011;32289;42.688;23.330;2023-05-19T10:27:56;11.18;;;6.68;;
46561;SDS011;32289;42.688;23.330;2023-05-19T10:31:49;9.13;;;5.88;;
46561;SDS011;32289;42.688;23.330;2023-05-19T10:39:22;15.35;;;10.23;;
46561;SDS011;32289;42.688;23.330;2023-05-19T10:46:47;9.95;;;5.45;;
46561;SDS011;32289;42.688;23.330;2023-05-19T10:50:34;8.82;;;6.22;;
46561;SDS011;32289;42.688;23.330;2023-05-19T10:54:16;7.90;;;5.40;;
46561;SDS011;32289;42.688;23.330;2023-05-19T11:10:12;10.25;;;5.45;;
46561;SDS011;32289;42.688;23.330;2023-05-19T11:14:01;9.18;;;6.13;;
46561;SDS011;32289;42.688;23.330;2023-05-19T11:17:47;6.82;;;5.18;;
46561;SDS011;32289;42.688;23.330;2023-05-19T11:21:41;6.78;;;4.90;;
46561;SDS011;32289;42.688;23.330;2023-05-19T11:25:40;7.82;;;5.93;;
46561;SDS011;32289;42.688;23.330;2023-05-19T11:29:26;8.85;;;5.78;;
46561;SDS011;32289;42.688;23.330;2023-05-19T11:33:11;12.85;;;7.50;;
46561;SDS011;32289;42.688;23.330;2023-05-19T11:36:52;8.65;;;5.72;;
46561;SDS011;32289;42.688;23.330;2023-05-19T11:40:33;10.30;;;6.05;;
46561;SDS011;32289;42.688;23.330;2023-05-19T11:44:14;8.90;;;6.15;;
46561;SDS011;32289;42.688;23.330;2023-05-19T11:47:54;11.38;;;5.88;;
46561;SDS011;32289;42.688;23.330;2023-05-19T11:51:37;8.52;;;5.82;;
46561;SDS011;32289;42.688;23.330;2023-05-19T11:55:18;10.93;;;6.78;;
46561;SDS011;32289;42.688;23.330;2023-05-19T11:59:01;9.00;;;6.20;;
46561;SDS011;32289;42.688;23.330;2023-05-19T12:02:41;9.75;;;6.03;;
46561;SDS011;32289;42.688;23.330;2023-05-19T12:06:22;9.55;;;6.15;;
46561;SDS011;32289;42.688;23.330;2023-05-19T12:10:05;9.00;;;5.53;;
46561;SDS011;32289;42.688;23.330;2023-05-19T12:13:47;12.75;;;5.70;;
46561;SDS011;32289;42.688;23.330;2023-05-19T12:17:30;7.65;;;5.05;;
46561;SDS011;32289;42.688;23.330;2023-05-19T12:21:11;10.20;;;4.35;;
46561;SDS011;32289;42.688;23.330;2023-05-19T12:24:52;8.05;;;5.00;;
46561;SDS011;32289;42.688;23.330;2023-05-19T12:28:33;7.57;;;5.05;;
46561;SDS011;32289;42.688;23.330;2023-05-19T12:32:15;7.30;;;4.75;;
46561;SDS011;32289;42.688;23.330;2023-05-19T12:35:55;8.02;;;4.53;;
46561;SDS011;32289;42.688;23.330;2023-05-19T12:39:36;8.40;;;4.80;;
46561;SDS011;32289;42.688;23.330;2023-05-19T12:43:21;7.32;;;4.30;;
46561;SDS011;32289;42.688;23.330;2023-05-19T12:47:03;11.25;;;4.93;;
46561;SDS011;32289;42.688;23.330;2023-05-19T12:50:45;7.95;;;5.00;;
46561;SDS011;32289;42.688;23.330;2023-05-19T12:54:31;9.23;;;4.35;;
46561;SDS011;32289;42.688;23.330;2023-05-19T12:58:14;7.50;;;4.45;;
46561;SDS011;32289;42.688;23.330;2023-05-19T13:01:55;6.93;;;4.13;;
46561;SDS011;32289;42.688;23.330;2023-05-19T13:05:37;8.85;;;4.57;;
46561;SDS011;32289;42.688;23.330;2023-05-19T13:09:19;6.57;;;4.38;;
46561;SDS011;32289;42.688;23.330;2023-05-19T13:13:00;10.02;;;5.43;;
46561;SDS011;32289;42.688;23.330;2023-05-19T13:16:41;6.80;;;4.35;;
46561;SDS011;32289;42.688;23.330;2023-05-19T13:20:22;7.93;;;4.20;;
46561;SDS011;32289;42.688;23.330;2023-05-19T13:24:03;12.57;;;7.78;;
46561;SDS011;32289;42.688;23.330;2023-05-19T13:27:44;7.90;;;3.75;;
46561;SDS011;32289;42.688;23.330;2023-05-19T13:31:26;10.27;;;5.88;;
46561;SDS011;32289;42.688;23.330;2023-05-19T13:35:07;12.45;;;6.38;;
46561;SDS011;32289;42.688;23.330;2023-05-19T13:38:48;7.97;;;3.97;;
46561;SDS011;32289;42.688;23.330;2023-05-19T13:42:30;10.65;;;4.53;;
46561;SDS011;32289;42.688;23.330;2023-05-19T13:46:12;9.05;;;4.72;;
46561;SDS011;32289;42.688;23.330;2023-05-19T13:49:53;8.90;;;4.43;;
46561;SDS011;32289;42.688;23.330;2023-05-19T13:53:34;12.27;;;4.32;;
46561;SDS011;32289;42.688;23.330;2023-05-19T13:57:15;13.73;;;6.90;;
46561;SDS011;32289;42.688;23.330;2023-05-19T14:00:55;7.10;;;4.63;;
46561;SDS011;32289;42.688;23.330;2023-05-19T14:04:38;8.10;;;5.13;;
46561;SDS011;32289;42.688;23.330;2023-05-19T14:08:19;10.98;;;5.50;;
46561;SDS011;32289;42.688;23.330;2023-05-19T14:12:01;10.98;;;4.75;;
46561;SDS011;32289;42.688;23.330;2023-05-19T14:15:42;8.23;;;4.63;;
46561;SDS011;32289;42.688;23.330;2023-05-19T14:19:23;7.97;;;4.55;;
46561;SDS011;32289;42.688;23.330;2023-05-19T14:23:08;15.35;;;6.25;;
46561;SDS011;32289;42.688;23.330;2023-05-19T14:26:49;12.18;;;6.45;;
46561;SDS011;32289;42.688;23.330;2023-05-19T14:30:31;16.00;;;5.93;;
46561;SDS011;32289;42.688;23.330;2023-05-19T14:34:12;9.18;;;4.75;;
46561;SDS011;32289;42.688;23.330;2023-05-19T14:37:56;15.30;;;9.38;;
46561;SDS011;32289;42.688;23.330;2023-05-19T14:41:37;8.13;;;4.47;;
46561;SDS011;32289;42.688;23.330;2023-05-19T14:45:17;8.00;;;4.55;;
46561;SDS011;32289;42.688;23.330;2023-05-19T14:48:59;9.98;;;5.28;;
46561;SDS011;32289;42.688;23.330;2023-05-19T14:52:40;7.38;;;3.78;;
46561;SDS011;32289;42.688;23.330;2023-05-19T14:56:22;9.88;;;4.72;;
46561;SDS011;32289;42.688;23.330;2023-05-19T15:00:02;8.05;;;4.30;;
46561;SDS011;32289;42.688;23.330;2023-05-19T15:03:44;9.50;;;5.25;;
46561;SDS011;32289;42.688;23.330;2023-05-19T15:07:24;8.70;;;4.90;;
46561;SDS011;32289;42.688;23.330;2023-05-19T15:11:06;7.72;;;4.68;;
46561;SDS011;32289;42.688;23.330;2023-05-19T15:14:47;10.60;;;4.90;;
46561;SDS011;32289;42.688;23.330;2023-05-19T15:18:27;6.53;;;4.38;;
46561;SDS011;32289;42.688;23.330;2023-05-19T15:22:08;9.95;;;5.38;;
46561;SDS011;32289;42.688;23.330;2023-05-19T15:25:48;7.22;;;4.85;;
46561;SDS011;32289;42.688;23.330;2023-05-19T15:29:29;7.97;;;4.80;;
46561;SDS011;32289;42.688;23.330;2023-05-19T15:33:10;7.00;;;4.32;;
46561;SDS011;32289;42.688;23.330;2023-05-19T15:36:51;7.03;;;4.40;;
46561;SDS011;32289;42.688;23.330;2023-05-19T15:40:32;8.45;;;4.97;;
46561;SDS011;32289;42.688;23.330;2023-05-19T15:44:12;7.68;;;4.68;;
46561;SDS011;32289;42.688;23.330;2023-05-19T15:47:53;9.13;;;4.85;;
46561;SDS011;32289;42.688;23.330;2023-05-19T15:51:34;10.05;;;4.80;;
46561;SDS011;32289;42.688;23.330;2023-05-19T15:55:15;9.60;;;5.00;;
46561;SDS011;32289;42.688;23.330;2023-05-19T15:58:56;8.27;;;5.55;;
46561;SDS011;32289;42.688;23.330;2023-05-19T16:02:36;8.40;;;4.68;;
46561;SDS011;32289;42.688;23.330;2023-05-19T16:06:17;12.55;;;5.13;;
46561;SDS011;32289;42.688;23.330;2023-05-19T16:09:58;10.57;;;6.70;;
46561;SDS011;32289;42.688;23.330;2023-05-19T16:13:38;7.70;;;5.00;;
46561;SDS011;32289;42.688;23.330;2023-05-19T16:17:19;8.70;;;4.75;;
46561;SDS011;32289;42.688;23.330;2023-05-19T16:21:00;11.27;;;5.63;;
46561;SDS011;32289;42.688;23.330;2023-05-19T16:24:40;9.13;;;4.82;;
46561;SDS011;32289;42.688;23.330;2023-05-19T16:28:21;7.88;;;4.95;;
46561;SDS011;32289;42.688;23.330;2023-05-19T16:32:02;8.35;;;4.97;;
46561;SDS011;32289;42.688;23.330;2023-05-19T16:35:43;7.15;;;5.00;;
46561;SDS011;32289;42.688;23.330;2023-05-19T16:39:23;8.90;;;5.60;;
46561;SDS011;32289;42.688;23.330;2023-05-19T16:43:04;9.38;;;5.65;;
46561;SDS011;32289;42.688;23.330;2023-05-19T16:46:45;9.55;;;4.90;;
46561;SDS011;32289;42.688;23.330;2023-05-19T16:50:25;8.68;;;5.25;;
46561;SDS011;32289;42.688;23.330;2023-05-19T16:54:06;7.80;;;4.57;;
46561;SDS011;32289;42.688;23.330;2023-05-19T16:57:47;10.95;;;5.57;;
46561;SDS011;32289;42.688;23.330;2023-05-19T17:01:27;8.07;;;5.28;;
46561;SDS011;32289;42.688;23.330;2023-05-19T17:05:08;14.20;;;7.35;;
46561;SDS011;32289;42.688;23.330;2023-05-19T17:08:49;11.63;;;5.85;;
46561;SDS011;32289;42.688;23.330;2023-05-19T17:12:29;8.75;;;5.13;;
46561;SDS011;32289;42.688;23.330;2023-05-19T17:16:10;10.30;;;5.60;;
46561;SDS011;32289;42.688;23.330;2023-05-19T17:19:51;18.25;;;7.28;;
46561;SDS011;32289;42.688;23.330;2023-05-19T17:23:31;17.30;;;9.50;;
46561;SDS011;32289;42.688;23.330;2023-05-19T17:27:12;14.23;;;7.25;;
46561;SDS011;32289;42.688;23.330;2023-05-19T17:30:53;12.57;;;6.03;;
46561;SDS011;32289;42.688;23.330;2023-05-19T17:34:34;12.23;;;5.60;;
46561;SDS011;32289;42.688;23.330;2023-05-19T17:38:15;10.75;;;6.28;;
46561;SDS011;32289;42.688;23.330;2023-05-19T17:41:56;12.80;;;7.20;;
46561;SDS011;32289;42.688;23.330;2023-05-19T17:45:36;11.13;;;6.28;;
46561;SDS011;32289;42.688;23.330;2023-05-19T17:49:17;10.43;;;6.28;;
46561;SDS011;32289;42.688;23.330;2023-05-19T17:52:58;13.32;;;7.03;;
46561;SDS011;32289;42.688;23.330;2023-05-19T17:56:39;19.23;;;8.23;;
46561;SDS011;32289;42.688;23.330;2023-05-19T18:00:22;20.75;;;9.05;;
46561;SDS011;32289;42.688;23.330;2023-05-19T18:04:04;30.67;;;15.48;;
46561;SDS011;32289;42.688;23.330;2023-05-19T18:07:44;28.15;;;15.48;;
46561;SDS011;32289;42.688;23.330;2023-05-19T18:11:26;20.75;;;10.38;;
46561;SDS011;32289;42.688;23.330;2023-05-19T18:15:07;12.02;;;6.78;;
46561;SDS011;32289;42.688;23.330;2023-05-19T18:18:51;18.67;;;9.98;;
46561;SDS011;32289;42.688;23.330;2023-05-19T18:22:32;20.25;;;9.02;;
46561;SDS011;32289;42.688;23.330;2023-05-19T18:26:13;14.23;;;8.68;;
46561;SDS011;32289;42.688;23.330;2023-05-19T18:29:53;13.18;;;6.55;;
46561;SDS011;32289;42.688;23.330;2023-05-19T18:33:34;14.48;;;8.70;;
46561;SDS011;32289;42.688;23.330;2023-05-19T18:37:15;14.02;;;7.60;;
46561;SDS011;32289;42.688;23.330;2023-05-19T18:40:57;16.25;;;7.45;;
46561;SDS011;32289;42.688;23.330;2023-05-19T18:44:39;13.02;;;6.75;;
46561;SDS011;32289;42.688;23.330;2023-05-19T18:48:21;16.65;;;9.02;;
46561;SDS011;32289;42.688;23.330;2023-05-19T18:52:02;17.05;;;9.40;;
46561;SDS011;32289;42.688;23.330;2023-05-19T18:55:43;15.73;;;6.88;;
46561;SDS011;32289;42.688;23.330;2023-05-19T18:59:24;9.77;;;6.85;;
46561;SDS011;32289;42.688;23.330;2023-05-19T19:03:05;12.43;;;6.93;;
46561;SDS011;32289;42.688;23.330;2023-05-19T19:06:47;13.63;;;6.78;;
46561;SDS011;32289;42.688;23.330;2023-05-19T19:10:28;13.85;;;7.53;;
46561;SDS011;32289;42.688;23.330;2023-05-19T19:14:13;10.60;;;6.25;;
46561;SDS011;32289;42.688;23.330;2023-05-19T19:17:53;11.70;;;5.90;;
46561;SDS011;32289;42.688;23.330;2023-05-19T19:21:34;15.50;;;8.05;;
46561;SDS011;32289;42.688;23.330;2023-05-19T19:25:15;19.42;;;10.95;;
46561;SDS011;32289;42.688;23.330;2023-05-19T19:28:56;10.75;;;6.32;;
46561;SDS011;32289;42.688;23.330;2023-05-19T19:32:37;12.45;;;5.95;;
46561;SDS011;32289;42.688;23.330;2023-05-19T19:36:17;9.73;;;5.60;;
46561;SDS011;32289;42.688;23.330;2023-05-19T19:39:58;12.93;;;6.18;;
46561;SDS011;32289;42.688;23.330;2023-05-19T19:43:39;13.45;;;6.88;;
46561;SDS011;32289;42.688;23.330;2023-05-19T19:47:19;20.30;;;7.07;;
46561;SDS011;32289;42.688;23.330;2023-05-19T19:51:00;15.40;;;6.70;;
46561;SDS011;32289;42.688;23.330;2023-05-19T19:54:41;13.45;;;6.93;;
46561;SDS011;32289;42.688;23.330;2023-05-19T19:58:21;12.68;;;6.50;;
46561;SDS011;32289;42.688;23.330;2023-05-19T20:02:02;11.13;;;5.72;;
46561;SDS011;32289;42.688;23.330;2023-05-19T20:05:43;19.25;;;6.80;;
46561;SDS011;32289;42.688;23.330;2023-05-19T20:09:23;9.90;;;5.40;;
46561;SDS011;32289;42.688;23.330;2023-05-19T20:13:04;14.02;;;6.53;;
46561;SDS011;32289;42.688;23.330;2023-05-19T20:16:45;13.40;;;5.75;;
46561;SDS011;32289;42.688;23.330;2023-05-19T20:20:26;9.95;;;5.30;;
46561;SDS011;32289;42.688;23.330;2023-05-19T20:24:06;7.10;;;4.90;;
46561;SDS011;32289;42.688;23.330;2023-05-19T20:27:47;8.95;;;5.35;;
46561;SDS011;32289;42.688;23.330;2023-05-19T20:31:27;11.45;;;5.50;;
46561;SDS011;32289;42.688;23.330;2023-05-19T20:35:08;12.95;;;4.85;;
46561;SDS011;32289;42.688;23.330;2023-05-19T20:38:49;7.95;;;5.22;;
46561;SDS011;32289;42.688;23.330;2023-05-19T20:42:29;13.45;;;5.15;;
46561;SDS011;32289;42.688;23.330;2023-05-19T20:46:10;8.60;;;5.10;;
46561;SDS011;32289;42.688;23.330;2023-05-19T20:49:51;15.90;;;6.15;;
46561;SDS011;32289;42.688;23.330;2023-05-19T20:53:31;13.27;;;6.97;;
46561;SDS011;32289;42.688;23.330;2023-05-19T20:57:12;14.23;;;7.57;;
46561;SDS011;32289;42.688;23.330;2023-05-19T21:00:55;14.73;;;6.68;;
46561;SDS011;32289;42.688;23.330;2023-05-19T21:04:36;16.33;;;6.05;;
46561;SDS011;32289;42.688;23.330;2023-05-19T21:08:17;16.48;;;6.50;;
46561;SDS011;32289;42.688;23.330;2023-05-19T21:11:58;17.63;;;5.80;;
46561;SDS011;32289;42.688;23.330;2023-05-19T21:15:39;16.60;;;6.57;;
46561;SDS011;32289;42.688;23.330;2023-05-19T21:19:19;13.73;;;6.43;;
46561;SDS011;32289;42.688;23.330;2023-05-19T21:23:01;16.48;;;6.72;;
46561;SDS011;32289;42.688;23.330;2023-05-19T21:26:42;17.30;;;7.45;;
46561;SDS011;32289;42.688;23.330;2023-05-19T21:30:23;10.73;;;6.78;;
46561;SDS011;32289;42.688;23.330;2023-05-19T21:34:04;10.82;;;6.05;;
46561;SDS011;32289;42.688;23.330;2023-05-19T21:37:46;13.75;;;7.25;;
46561;SDS011;32289;42.688;23.330;2023-05-19T21:41:27;11.52;;;5.75;;
46561;SDS011;32289;42.688;23.330;2023-05-19T21:45:10;13.45;;;6.53;;
46561;SDS011;32289;42.688;23.330;2023-05-19T21:48:50;12.30;;;6.22;;
46561;SDS011;32289;42.688;23.330;2023-05-19T21:52:31;13.05;;;6.22;;
46561;SDS011;32289;42.688;23.330;2023-05-19T21:56:12;15.10;;;8.68;;
46561;SDS011;32289;42.688;23.330;2023-05-19T21:59:52;15.25;;;8.30;;
46561;SDS011;32289;42.688;23.330;2023-05-19T22:03:33;10.68;;;6.10;;
46561;SDS011;32289;42.688;23.330;2023-05-19T22:07:14;11.70;;;6.15;;
46561;SDS011;32289;42.688;23.330;2023-05-19T22:10:54;11.02;;;6.75;;
46561;SDS011;32289;42.688;23.330;2023-05-19T22:14:35;17.45;;;6.47;;
46561;SDS011;32289;42.688;23.330;2023-05-19T22:18:16;13.95;;;6.07;;
46561;SDS011;32289;42.688;23.330;2023-05-19T22:21:56;16.83;;;6.30;;